createdAt,value
2022-12-31T00:00:32.786Z,3.58
2022-12-31T00:03:00.069Z,3.90
2022-12-31T00:05:27.058Z,3.33
2022-12-31T00:07:53.946Z,4.13
2022-12-31T00:10:21.325Z,3.15
2022-12-31T00:12:48.214Z,4.13
2022-12-31T00:15:15.169Z,4.72
2022-12-31T00:17:42.112Z,4.95
2022-12-31T00:20:09.275Z,3.60
2022-12-31T00:22:36.267Z,3.50
2022-12-31T00:25:04.413Z,4.32
2022-12-31T00:27:32.399Z,4.00
2022-12-31T00:30:04.267Z,4.07
2022-12-31T00:32:32.234Z,4.43
2022-12-31T00:34:59.201Z,3.95
2022-12-31T00:37:26.065Z,3.90
2022-12-31T00:39:53.023Z,3.70
2022-12-31T00:42:19.930Z,3.70
2022-12-31T00:44:46.905Z,3.95
2022-12-31T00:47:13.959Z,3.72
2022-12-31T00:49:40.872Z,3.53
2022-12-31T00:52:07.824Z,3.45
2022-12-31T00:54:34.847Z,3.58
2022-12-31T00:57:01.730Z,3.08
2022-12-31T00:59:28.708Z,3.60
2022-12-31T01:01:55.737Z,3.17
2022-12-31T01:04:22.675Z,3.53
2022-12-31T01:06:49.637Z,2.70
2022-12-31T01:09:17.768Z,3.95
2022-12-31T01:11:45.290Z,3.45
2022-12-31T01:14:15.537Z,2.97
2022-12-31T01:16:45.485Z,3.30
2022-12-31T01:19:15.975Z,3.25
2022-12-31T01:21:44.609Z,3.13
2022-12-31T01:24:12.562Z,2.72
2022-12-31T01:26:40.132Z,3.10
2022-12-31T01:29:08.452Z,3.20
2022-12-31T01:31:36.638Z,3.30
2022-12-31T01:34:04.045Z,3.45
2022-12-31T01:36:32.522Z,2.80
2022-12-31T01:39:01.529Z,3.50
2022-12-31T01:41:32.896Z,3.15
2022-12-31T01:44:23.739Z,3.40
2022-12-31T01:46:57.477Z,3.22
2022-12-31T01:49:31.344Z,3.08
2022-12-31T01:52:07.317Z,3.10
2022-12-31T01:54:39.857Z,3.35
2022-12-31T01:57:09.709Z,3.40
2022-12-31T01:59:36.861Z,3.25
2022-12-31T02:02:04.692Z,3.17
2022-12-31T02:04:31.986Z,2.53
2022-12-31T02:07:02.851Z,2.72
2022-12-31T02:09:31.587Z,3.20
2022-12-31T02:11:58.611Z,3.10
2022-12-31T02:14:34.797Z,2.92
2022-12-31T02:17:30.886Z,3.15
2022-12-31T02:20:15.974Z,2.60
2022-12-31T02:23:00.758Z,2.72
2022-12-31T02:26:05.013Z,2.80
2022-12-31T02:28:43.632Z,2.40
2022-12-31T02:31:19.511Z,2.85
2022-12-31T02:34:13.803Z,2.85
2022-12-31T02:36:44.483Z,2.38
2022-12-31T02:39:13.499Z,2.88
2022-12-31T02:41:53.946Z,2.70
2022-12-31T02:44:33.799Z,2.55
2022-12-31T02:47:09.241Z,2.95
2022-12-31T02:49:54.616Z,2.70
2022-12-31T02:52:27.168Z,2.80
2022-12-31T02:55:26.839Z,2.70
2022-12-31T02:58:13.120Z,3.22
2022-12-31T03:01:05.742Z,2.77
2022-12-31T03:03:33.344Z,3.15
2022-12-31T03:06:03.353Z,3.17
2022-12-31T03:08:30.585Z,2.33
2022-12-31T03:10:57.865Z,2.72
2022-12-31T03:13:25.093Z,2.50
2022-12-31T03:15:51.976Z,2.95
2022-12-31T03:18:39.588Z,2.70
2022-12-31T03:21:31.088Z,2.95
2022-12-31T03:24:16.668Z,2.63
2022-12-31T03:26:43.623Z,2.75
2022-12-31T03:29:10.613Z,2.67
2022-12-31T03:31:37.734Z,2.85
2022-12-31T03:34:04.780Z,2.70
2022-12-31T03:36:31.693Z,2.67
2022-12-31T03:38:58.596Z,2.20
2022-12-31T03:41:25.501Z,2.70
2022-12-31T03:43:52.532Z,2.25
2022-12-31T03:46:19.481Z,2.80
2022-12-31T03:48:46.530Z,2.22
2022-12-31T03:51:13.596Z,2.25
2022-12-31T03:53:40.466Z,2.50
2022-12-31T03:56:07.570Z,2.10
2022-12-31T03:58:34.477Z,2.45
2022-12-31T04:01:01.474Z,2.40
2022-12-31T04:03:28.857Z,1.67
2022-12-31T04:05:56.216Z,2.35
2022-12-31T04:08:23.791Z,2.72
2022-12-31T04:10:50.805Z,2.33
2022-12-31T04:13:17.651Z,2.13
2022-12-31T04:15:44.610Z,2.15
2022-12-31T04:18:11.798Z,1.75
2022-12-31T04:20:38.732Z,1.90
2022-12-31T04:23:05.669Z,1.83
2022-12-31T04:25:32.825Z,1.90
2022-12-31T04:27:59.717Z,1.85
2022-12-31T04:30:26.650Z,1.90
2022-12-31T04:32:53.524Z,2.10
2022-12-31T04:35:20.728Z,2.30
2022-12-31T04:37:47.585Z,1.70
2022-12-31T04:40:14.538Z,1.88
2022-12-31T04:42:41.949Z,1.67
2022-12-31T04:45:10.329Z,1.60
2022-12-31T04:47:37.238Z,1.90
2022-12-31T04:50:04.931Z,2.17
2022-12-31T04:52:35.681Z,2.10
2022-12-31T04:55:06.125Z,2.20
2022-12-31T04:57:33.805Z,2.45
2022-12-31T05:00:00.724Z,2.13
2022-12-31T05:02:30.233Z,2.20
2022-12-31T05:04:57.247Z,2.35
2022-12-31T05:07:24.098Z,1.92
2022-12-31T05:09:51.599Z,2.17
2022-12-31T05:12:18.617Z,2.25
2022-12-31T05:14:45.532Z,1.90
2022-12-31T05:17:12.470Z,1.98
2022-12-31T05:19:39.368Z,2.20
2022-12-31T05:22:24.742Z,2.20
2022-12-31T05:24:52.459Z,2.70
2022-12-31T05:27:19.516Z,2.50
2022-12-31T05:29:46.485Z,2.90
2022-12-31T05:32:13.457Z,2.42
2022-12-31T05:34:40.338Z,2.63
2022-12-31T05:37:07.250Z,2.20
2022-12-31T05:39:36.348Z,2.78
2022-12-31T05:42:03.443Z,2.45
2022-12-31T05:44:30.366Z,2.72
2022-12-31T05:46:57.256Z,2.55
2022-12-31T05:49:24.278Z,2.10
2022-12-31T05:51:51.181Z,2.75
2022-12-31T05:54:18.153Z,2.63
2022-12-31T05:56:45.655Z,3.10
2022-12-31T05:59:12.632Z,2.90
2022-12-31T06:01:39.565Z,3.17
2022-12-31T06:04:06.561Z,2.63
2022-12-31T06:06:33.566Z,2.70
2022-12-31T06:09:00.548Z,2.55
2022-12-31T06:11:27.474Z,2.80
2022-12-31T06:13:54.483Z,3.00
2022-12-31T06:16:21.443Z,3.30
2022-12-31T06:18:51.059Z,3.30
2022-12-31T06:21:19.550Z,3.33
2022-12-31T06:23:46.806Z,2.45
2022-12-31T06:26:13.981Z,2.47
2022-12-31T06:28:41.105Z,1.77
2022-12-31T06:31:11.249Z,1.58
2022-12-31T06:33:38.513Z,2.25
2022-12-31T06:36:08.627Z,1.83
2022-12-31T06:38:38.250Z,2.30
2022-12-31T06:41:10.429Z,2.30
2022-12-31T06:43:38.895Z,2.10
2022-12-31T06:46:07.975Z,2.33
2022-12-31T06:48:35.269Z,2.63
2022-12-31T06:51:15.033Z,2.30
2022-12-31T06:53:45.135Z,2.17
2022-12-31T06:56:26.495Z,1.92
2022-12-31T06:58:58.170Z,1.88
2022-12-31T07:01:44.619Z,1.95
2022-12-31T07:04:33.428Z,2.13
2022-12-31T07:07:14.580Z,2.38
2022-12-31T07:09:53.440Z,1.83
2022-12-31T07:12:29.535Z,2.20
2022-12-31T07:15:05.608Z,2.25
2022-12-31T07:18:17.428Z,2.15
2022-12-31T07:20:44.767Z,1.95
2022-12-31T07:23:11.935Z,1.50
2022-12-31T07:25:44.672Z,1.80
2022-12-31T07:28:20.659Z,1.90
2022-12-31T07:31:25.794Z,1.73
2022-12-31T07:33:59.573Z,2.03
2022-12-31T07:36:50.527Z,1.60
2022-12-31T07:39:27.693Z,1.80
2022-12-31T07:42:19.545Z,1.42
2022-12-31T07:44:57.729Z,1.95
2022-12-31T07:47:27.746Z,2.35
2022-12-31T07:49:56.518Z,2.42
2022-12-31T07:52:24.094Z,2.83
2022-12-31T07:54:51.031Z,2.35
2022-12-31T07:57:20.731Z,2.35
2022-12-31T08:00:23.057Z,2.42
2022-12-31T08:03:23.746Z,2.15
2022-12-31T08:06:17.586Z,2.25
2022-12-31T08:09:03.257Z,2.70
2022-12-31T08:11:56.962Z,1.88
2022-12-31T08:14:26.943Z,1.60
2022-12-31T08:16:54.505Z,2.00
2022-12-31T08:19:27.392Z,2.03
2022-12-31T08:22:12.773Z,2.00
2022-12-31T08:24:58.407Z,1.88
2022-12-31T08:27:40.644Z,2.20
2022-12-31T08:30:09.294Z,1.77
2022-12-31T08:33:20.184Z,2.03
2022-12-31T08:36:19.372Z,1.77
2022-12-31T08:39:03.272Z,1.90
2022-12-31T08:41:43.173Z,1.92
2022-12-31T08:44:41.122Z,1.80
2022-12-31T08:47:26.450Z,1.95
2022-12-31T08:49:53.740Z,2.20
2022-12-31T08:52:25.052Z,2.53
2022-12-31T08:54:52.794Z,2.10
2022-12-31T08:57:46.258Z,2.65
2022-12-31T09:00:16.930Z,2.80
2022-12-31T09:02:55.654Z,2.55
2022-12-31T09:05:31.040Z,2.83
2022-12-31T09:08:00.876Z,2.60
2022-12-31T09:10:32.792Z,2.70
2022-12-31T09:13:23.880Z,2.92
2022-12-31T09:16:16.701Z,2.67
2022-12-31T09:18:45.013Z,3.58
2022-12-31T09:21:16.312Z,3.28
2022-12-31T09:23:43.748Z,2.67
2022-12-31T09:26:38.185Z,2.70
2022-12-31T09:29:27.471Z,2.40
2022-12-31T09:32:14.679Z,2.35
2022-12-31T09:34:50.596Z,2.90
2022-12-31T09:37:43.233Z,2.25
2022-12-31T09:40:22.383Z,2.72
2022-12-31T09:43:05.852Z,2.15
2022-12-31T10:17:41.363Z,2.43
2022-12-31T10:20:17.501Z,2.53
2022-12-31T10:22:44.326Z,2.50
2022-12-31T10:25:38.381Z,1.95
2022-12-31T10:28:29.615Z,2.25
2022-12-31T10:31:28.540Z,2.25
2022-12-31T10:34:24.608Z,2.15
2022-12-31T10:36:54.711Z,2.03
2022-12-31T10:39:38.409Z,2.30
2022-12-31T10:42:17.289Z,2.05
2022-12-31T10:45:32.426Z,2.38
2022-12-31T10:48:26.816Z,1.90
2022-12-31T10:50:59.423Z,2.20
2022-12-31T10:53:37.951Z,2.40
2022-12-31T10:56:35.401Z,2.20
2022-12-31T10:59:25.327Z,2.25
2022-12-31T11:01:55.010Z,2.75
2022-12-31T11:04:57.080Z,2.97
2022-12-31T11:07:54.849Z,2.17
2022-12-31T11:10:48.721Z,1.95
2022-12-31T11:13:40.695Z,2.40
2022-12-31T11:16:07.969Z,2.45
2022-12-31T11:18:52.129Z,3.15
2022-12-31T11:21:27.967Z,2.15
2022-12-31T11:24:12.980Z,2.72
2022-12-31T11:26:55.603Z,2.58
2022-12-31T11:29:59.918Z,3.30
2022-12-31T11:32:31.869Z,2.20
2022-12-31T11:35:13.642Z,2.50
2022-12-31T11:37:56.772Z,2.38
2022-12-31T11:40:32.993Z,2.65
2022-12-31T11:43:05.099Z,1.80
2022-12-31T11:45:54.203Z,2.58
2022-12-31T11:48:39.140Z,2.42
2022-12-31T11:51:50.190Z,1.90
2022-12-31T11:54:26.385Z,2.75
2022-12-31T11:57:11.517Z,2.27
2022-12-31T11:59:38.674Z,2.30
2022-12-31T12:02:29.206Z,2.42
2022-12-31T12:05:06.506Z,2.05
2022-12-31T12:07:37.743Z,2.03
2022-12-31T12:10:17.909Z,1.80
2022-12-31T12:12:44.950Z,2.20
2022-12-31T12:15:21.680Z,1.77
2022-12-31T12:17:57.605Z,2.10
2022-12-31T12:20:55.849Z,2.33
2022-12-31T12:23:25.605Z,2.40
2022-12-31T12:25:53.163Z,2.75
2022-12-31T12:28:21.534Z,2.80
2022-12-31T12:31:18.987Z,3.10
2022-12-31T12:33:47.883Z,2.60
2022-12-31T12:36:17.329Z,2.50
2022-12-31T12:38:45.070Z,2.42
2022-12-31T12:41:25.484Z,2.13
2022-12-31T12:44:14.409Z,2.65
2022-12-31T12:46:49.189Z,2.30
2022-12-31T12:49:21.796Z,2.83
2022-12-31T12:52:06.457Z,2.25
2022-12-31T12:54:51.868Z,2.13
2022-12-31T12:57:31.677Z,2.80
2022-12-31T13:00:21.476Z,2.50
2022-12-31T13:03:25.217Z,2.65
2022-12-31T13:06:22.671Z,2.25
2022-12-31T13:11:50.753Z,2.78
2022-12-31T13:14:40.990Z,2.17
2022-12-31T13:17:33.965Z,2.28
2022-12-31T13:20:15.413Z,2.63
2022-12-31T13:22:52.510Z,2.10
2022-12-31T13:25:26.868Z,2.55
2022-12-31T13:27:58.599Z,2.58
2022-12-31T13:30:33.374Z,3.10
2022-12-31T13:33:20.730Z,2.35
2022-12-31T13:35:57.899Z,2.70
2022-12-31T13:38:30.654Z,2.55
2022-12-31T13:40:57.604Z,3.30
2022-12-31T13:43:39.606Z,2.60
2022-12-31T13:46:30.020Z,2.50
2022-12-31T13:49:01.723Z,2.58
2022-12-31T13:51:42.134Z,3.40
2022-12-31T13:54:45.796Z,2.90
2022-12-31T13:57:27.277Z,3.17
2022-12-31T14:00:02.422Z,3.90
2022-12-31T14:02:43.431Z,2.75
2022-12-31T14:05:32.527Z,3.00
2022-12-31T14:08:01.952Z,3.45
2022-12-31T14:10:45.177Z,3.25
2022-12-31T14:13:34.151Z,3.40
2022-12-31T14:16:23.449Z,2.60
2022-12-31T14:19:19.656Z,3.15
2022-12-31T14:21:58.760Z,3.88
2022-12-31T14:24:50.800Z,2.83
2022-12-31T14:27:33.256Z,2.83
2022-12-31T14:30:27.958Z,3.25
2022-12-31T14:32:57.859Z,3.25
2022-12-31T14:35:38.924Z,3.45
2022-12-31T14:38:18.532Z,3.05
2022-12-31T14:41:00.759Z,2.92
2022-12-31T14:43:45.490Z,3.20
2022-12-31T14:46:37.181Z,4.25
2022-12-31T14:49:22.390Z,3.75
2022-12-31T14:51:49.349Z,3.35
2022-12-31T14:54:42.906Z,3.63
2022-12-31T14:57:26.858Z,3.40
2022-12-31T15:00:38.344Z,4.03
2022-12-31T15:03:41.255Z,3.63
2022-12-31T15:06:23.726Z,4.07
2022-12-31T15:09:08.340Z,3.63
2022-12-31T15:11:38.159Z,3.88
2022-12-31T15:14:24.528Z,4.25
2022-12-31T15:16:57.860Z,4.80
2022-12-31T15:19:43.802Z,3.40
2022-12-31T15:22:35.012Z,3.58
2022-12-31T15:25:02.970Z,4.05
2022-12-31T15:27:42.427Z,3.55
2022-12-31T15:30:35.486Z,3.03
2022-12-31T15:33:08.835Z,2.85
2022-12-31T15:35:54.170Z,3.38
2022-12-31T15:38:38.630Z,3.08
2022-12-31T15:41:14.512Z,3.35
2022-12-31T15:43:51.106Z,3.25
2022-12-31T15:49:04.244Z,2.70
2022-12-31T15:51:46.432Z,2.70
2022-12-31T15:54:38.498Z,3.20
2022-12-31T15:57:09.565Z,3.10
2022-12-31T15:59:38.353Z,3.60
2022-12-31T16:02:20.285Z,3.47
2022-12-31T16:04:48.711Z,3.05
2022-12-31T16:07:17.434Z,3.00
2022-12-31T16:09:51.104Z,3.22
2022-12-31T16:12:32.659Z,3.60
2022-12-31T16:15:01.028Z,3.67
2022-12-31T16:17:32.374Z,3.72
2022-12-31T16:20:00.873Z,3.63
2022-12-31T16:22:38.241Z,3.58
2022-12-31T16:27:55.197Z,3.83
2022-12-31T16:30:28.355Z,3.60
2022-12-31T16:33:00.159Z,3.40
2022-12-31T16:35:55.325Z,4.32
2022-12-31T16:38:23.241Z,3.28
2022-12-31T16:41:02.322Z,3.58
2022-12-31T16:43:40.821Z,3.10
2022-12-31T16:46:26.941Z,3.35
2022-12-31T16:49:07.534Z,3.43
2022-12-31T16:51:37.507Z,3.33
2022-12-31T16:54:04.883Z,3.20
2022-12-31T16:56:31.818Z,3.88
2022-12-31T16:59:06.514Z,3.90
2022-12-31T17:01:37.649Z,3.28
2022-12-31T17:04:11.684Z,3.70
2022-12-31T17:06:38.728Z,3.35
2022-12-31T17:09:14.563Z,2.80
2022-12-31T17:12:15.797Z,3.08
2022-12-31T17:14:51.374Z,3.67
2022-12-31T17:17:30.198Z,3.45
2022-12-31T17:20:00.415Z,2.92
2022-12-31T17:22:36.435Z,3.30
2022-12-31T17:25:05.662Z,3.15
2022-12-31T17:27:33.327Z,2.83
2022-12-31T17:30:22.138Z,3.35
2022-12-31T17:32:50.267Z,3.60
2022-12-31T17:35:42.084Z,3.30
2022-12-31T17:38:18.485Z,3.72
2022-12-31T17:40:52.007Z,3.28
2022-12-31T17:43:24.016Z,3.75
2022-12-31T17:45:52.909Z,3.10
2022-12-31T17:48:20.668Z,2.97
2022-12-31T17:50:53.498Z,2.85
2022-12-31T17:53:21.017Z,3.17
2022-12-31T17:55:51.225Z,3.70
2022-12-31T17:58:29.653Z,3.30
2022-12-31T18:00:58.722Z,4.00
2022-12-31T18:03:26.008Z,2.95
2022-12-31T18:05:53.248Z,2.90
2022-12-31T18:08:20.152Z,3.70
2022-12-31T18:10:47.364Z,4.20
2022-12-31T18:13:17.992Z,3.42
2022-12-31T18:15:45.405Z,3.10
2022-12-31T18:18:25.215Z,3.20
2022-12-31T18:21:05.341Z,3.25
2022-12-31T18:23:40.495Z,3.45
2022-12-31T18:26:09.970Z,3.00
2022-12-31T18:28:36.838Z,3.53
2022-12-31T18:31:03.852Z,3.40
2022-12-31T18:33:30.877Z,3.33
2022-12-31T18:36:08.685Z,4.00
2022-12-31T18:38:36.409Z,3.83
2022-12-31T18:41:04.385Z,3.45
2022-12-31T18:43:31.802Z,3.35
2022-12-31T18:45:59.154Z,2.92
2022-12-31T18:48:26.401Z,4.18
2022-12-31T18:50:53.769Z,3.35
2022-12-31T18:53:23.496Z,3.78
2022-12-31T18:55:51.965Z,2.83
2022-12-31T18:58:19.189Z,3.45
2022-12-31T19:00:48.033Z,3.42
2022-12-31T19:03:21.983Z,3.53
2022-12-31T19:05:51.128Z,4.22
2022-12-31T19:08:19.774Z,3.63
2022-12-31T19:10:48.035Z,3.45
2022-12-31T19:13:18.554Z,4.03
2022-12-31T19:15:51.471Z,3.65
2022-12-31T19:18:18.745Z,3.75
2022-12-31T19:20:46.207Z,4.03
2022-12-31T19:23:19.117Z,4.15
2022-12-31T19:25:47.744Z,4.07
2022-12-31T19:28:23.077Z,4.60
2022-12-31T19:30:50.640Z,5.13
2022-12-31T19:33:17.602Z,5.03
2022-12-31T19:35:45.418Z,4.07
2022-12-31T19:38:23.768Z,3.78
2022-12-31T19:40:52.887Z,4.28
2022-12-31T19:43:22.162Z,4.65
2022-12-31T19:45:50.436Z,4.68
2022-12-31T19:48:27.210Z,4.10
2022-12-31T19:50:59.220Z,4.15
2022-12-31T19:53:27.335Z,3.58
2022-12-31T19:55:54.753Z,3.75
2022-12-31T19:58:26.191Z,3.78
2022-12-31T20:01:01.253Z,3.92
2022-12-31T20:03:29.606Z,3.72
2022-12-31T20:06:07.958Z,4.28
2022-12-31T20:08:36.716Z,4.43
2022-12-31T20:11:15.521Z,4.38
2022-12-31T20:13:43.015Z,3.85
2022-12-31T20:16:13.189Z,4.10
2022-12-31T20:18:41.819Z,4.40
2022-12-31T20:21:14.633Z,4.03
2022-12-31T20:23:41.679Z,4.03
2022-12-31T20:26:09.276Z,4.28
2022-12-31T20:28:37.589Z,3.63
2022-12-31T20:31:09.674Z,3.95
2022-12-31T20:33:36.768Z,4.05
2022-12-31T20:36:09.542Z,4.07
2022-12-31T20:38:36.516Z,4.07
2022-12-31T20:41:09.516Z,3.70
2022-12-31T20:43:37.329Z,3.83
2022-12-31T20:46:15.816Z,3.90
2022-12-31T20:48:44.930Z,4.43
2022-12-31T20:51:13.267Z,5.93
2022-12-31T20:53:40.325Z,6.03
2022-12-31T20:56:09.787Z,7.53
2022-12-31T20:58:36.935Z,8.15
2022-12-31T21:01:07.448Z,8.27
2022-12-31T21:04:04.998Z,9.30
2022-12-31T21:06:26.744Z,10.27
2022-12-31T21:08:55.715Z,11.50
2022-12-31T21:11:41.705Z,9.60
2022-12-31T21:14:08.873Z,9.65
2022-12-31T21:16:36.224Z,8.32
2022-12-31T21:19:03.347Z,7.13
2022-12-31T21:21:30.281Z,7.28
2022-12-31T21:23:57.259Z,5.95
2022-12-31T21:26:24.154Z,5.80
2022-12-31T21:28:51.166Z,5.75
2022-12-31T21:31:18.092Z,5.03
2022-12-31T21:33:46.959Z,5.88
2022-12-31T21:36:14.452Z,4.78
2022-12-31T21:38:42.148Z,4.85
2022-12-31T21:41:33.216Z,4.20
2022-12-31T21:44:01.162Z,5.25
2022-12-31T21:46:28.267Z,4.70
2022-12-31T21:48:59.975Z,5.50
2022-12-31T21:51:28.083Z,5.25
2022-12-31T21:53:55.244Z,4.63
2022-12-31T21:56:22.947Z,5.13
2022-12-31T21:59:16.911Z,5.25
2022-12-31T22:02:02.686Z,5.10
2022-12-31T22:07:17.044Z,5.03
2022-12-31T22:09:43.904Z,5.50
2022-12-31T22:12:10.765Z,5.30
2022-12-31T22:14:37.710Z,4.47
2022-12-31T22:17:04.702Z,5.53
2022-12-31T22:19:33.736Z,4.97
2022-12-31T22:22:10.646Z,5.07
2022-12-31T22:24:37.537Z,5.93
2022-12-31T22:27:29.251Z,5.57
2022-12-31T22:29:51.384Z,6.85
2022-12-31T22:32:18.268Z,6.88
2022-12-31T22:34:45.246Z,8.05
2022-12-31T22:37:35.748Z,8.02
2022-12-31T22:39:59.099Z,6.05
2022-12-31T22:42:26.077Z,5.00
2022-12-31T22:44:53.173Z,4.25
2022-12-31T22:47:20.074Z,4.30
2022-12-31T22:49:46.981Z,4.68
2022-12-31T22:52:13.838Z,4.43
2022-12-31T22:54:40.750Z,4.50
2022-12-31T22:57:07.744Z,4.68
2022-12-31T22:59:34.734Z,4.55
2022-12-31T23:02:01.771Z,4.38
2022-12-31T23:04:28.790Z,4.75
2022-12-31T23:06:55.876Z,4.85
2022-12-31T23:09:41.479Z,5.15
2022-12-31T23:12:09.293Z,4.72
2022-12-31T23:14:55.086Z,5.40
2022-12-31T23:17:45.180Z,5.22
2022-12-31T23:20:35.227Z,4.18
2022-12-31T23:23:11.598Z,4.43
2022-12-31T23:25:42.935Z,3.97
2022-12-31T23:28:13.685Z,3.78
2022-12-31T23:30:41.403Z,4.40
2022-12-31T23:33:14.767Z,4.15
2022-12-31T23:35:41.734Z,4.18
2022-12-31T23:38:08.750Z,3.97
2022-12-31T23:40:35.804Z,4.50
2022-12-31T23:43:04.483Z,3.70
2022-12-31T23:45:33.469Z,3.75
2022-12-31T23:48:01.114Z,3.90
2022-12-31T23:50:28.325Z,3.60
2022-12-31T23:52:55.232Z,4.00
2022-12-31T23:55:22.212Z,3.88
2022-12-31T23:57:49.110Z,3.72
